sensor_id;sensor_type;location;lat;lon;timestamp;temperature;humidity
27747;DHT22;15138;51.012;4.692;2023-10-09T00:00:07;16.40;99.90
27747;DHT22;15138;51.012;4.692;2023-10-09T00:03:03;16.40;99.90
27747;DHT22;15138;51.012;4.692;2023-10-09T00:05:31;16.40;99.90
27747;DHT22;15138;51.012;4.692;2023-10-09T00:08:13;16.40;1.00
27747;DHT22;15138;51.012;4.692;2023-10-09T00:10:48;16.20;99.90
27747;DHT22;15138;51.012;4.692;2023-10-09T00:13:21;16.10;1.00
27747;DHT22;15138;51.012;4.692;2023-10-09T00:15:54;16.20;1.00
27747;DHT22;15138;51.012;4.692;2023-10-09T00:18:27;16.10;1.00
27747;DHT22;15138;51.012;4.692;2023-10-09T00:21:01;16.10;1.00
27747;DHT22;15138;51.012;4.692;2023-10-09T00:23:40;16.20;1.00
27747;DHT22;15138;51.012;4.692;2023-10-09T00:26:10;16.20;99.90
27747;DHT22;15138;51.012;4.692;2023-10-09T00:28:43;16.20;99.90
27747;DHT22;15138;51.012;4.692;2023-10-09T00:31:13;16.30;99.90
27747;DHT22;15138;51.012;4.692;2023-10-09T00:33:43;16.30;99.90
27747;DHT22;15138;51.012;4.692;2023-10-09T00:36:11;16.30;99.90
27747;DHT22;15138;51.012;4.692;2023-10-09T00:38:46;16.20;1.00
27747;DHT22;15138;51.012;4.692;2023-10-09T00:41:19;16.10;1.00
27747;DHT22;15138;51.012;4.692;2023-10-09T00:43:51;16.10;1.00
27747;DHT22;15138;51.012;4.692;2023-10-09T00:46:21;16.10;1.00
27747;DHT22;15138;51.012;4.692;2023-10-09T00:48:57;16.10;1.00
27747;DHT22;15138;51.012;4.692;2023-10-09T00:51:28;16.10;23.80
27747;DHT22;15138;51.012;4.692;2023-10-09T00:54:05;16.10;1.00
27747;DHT22;15138;51.012;4.692;2023-10-09T00:56:43;16.10;12.90
27747;DHT22;15138;51.012;4.692;2023-10-09T00:59:19;16.10;99.90
27747;DHT22;15138;51.012;4.692;2023-10-09T01:01:47;16.10;1.00
27747;DHT22;15138;51.012;4.692;2023-10-09T01:04:24;16.20;1.00
27747;DHT22;15138;51.012;4.692;2023-10-09T01:06:56;16.20;1.00
27747;DHT22;15138;51.012;4.692;2023-10-09T01:09:36;16.20;78.50
27747;DHT22;15138;51.012;4.692;2023-10-09T01:12:06;16.20;1.00
27747;DHT22;15138;51.012;4.692;2023-10-09T01:14:44;16.20;1.00
27747;DHT22;15138;51.012;4.692;2023-10-09T01:17:13;16.20;1.00
27747;DHT22;15138;51.012;4.692;2023-10-09T01:19:56;16.20;99.90
27747;DHT22;15138;51.012;4.692;2023-10-09T01:22:25;16.30;99.90
27747;DHT22;15138;51.012;4.692;2023-10-09T01:24:55;16.20;1.00
27747;DHT22;15138;51.012;4.692;2023-10-09T01:27:23;16.20;99.90
27747;DHT22;15138;51.012;4.692;2023-10-09T01:29:59;16.20;99.90
27747;DHT22;15138;51.012;4.692;2023-10-09T01:32:27;16.20;99.90
27747;DHT22;15138;51.012;4.692;2023-10-09T01:34:56;16.30;1.00
27747;DHT22;15138;51.012;4.692;2023-10-09T01:37:25;16.40;1.00
27747;DHT22;15138;51.012;4.692;2023-10-09T01:39:58;16.30;99.90
27747;DHT22;15138;51.012;4.692;2023-10-09T01:42:46;16.40;99.90
27747;DHT22;15138;51.012;4.692;2023-10-09T02:00:34;17.20;99.90
27747;DHT22;15138;51.012;4.692;2023-10-09T02:03:10;16.70;99.90
27747;DHT22;15138;51.012;4.692;2023-10-09T02:05:51;16.70;1.00
27747;DHT22;15138;51.012;4.692;2023-10-09T02:08:26;16.70;99.90
27747;DHT22;15138;51.012;4.692;2023-10-09T02:10:57;16.70;99.90
27747;DHT22;15138;51.012;4.692;2023-10-09T02:13:26;16.60;1.00
27747;DHT22;15138;51.012;4.692;2023-10-09T02:15:58;16.50;99.90
27747;DHT22;15138;51.012;4.692;2023-10-09T02:18:40;16.50;99.90
27747;DHT22;15138;51.012;4.692;2023-10-09T02:21:20;16.50;94.20
27747;DHT22;15138;51.012;4.692;2023-10-09T02:24:00;16.50;1.00
27747;DHT22;15138;51.012;4.692;2023-10-09T02:26:32;16.50;1.00
27747;DHT22;15138;51.012;4.692;2023-10-09T02:29:23;16.50;1.00
27747;DHT22;15138;51.012;4.692;2023-10-09T02:31:51;16.50;1.00
27747;DHT22;15138;51.012;4.692;2023-10-09T02:34:27;16.50;99.90
27747;DHT22;15138;51.012;4.692;2023-10-09T02:37:00;16.50;1.00
27747;DHT22;15138;51.012;4.692;2023-10-09T02:39:33;16.50;99.90
27747;DHT22;15138;51.012;4.692;2023-10-09T02:42:11;16.50;99.90
27747;DHT22;15138;51.012;4.692;2023-10-09T02:44:50;16.50;1.00
27747;DHT22;15138;51.012;4.692;2023-10-09T02:47:19;16.50;1.00
27747;DHT22;15138;51.012;4.692;2023-10-09T02:49:52;16.50;1.00
27747;DHT22;15138;51.012;4.692;2023-10-09T02:52:27;16.50;1.00
27747;DHT22;15138;51.012;4.692;2023-10-09T02:55:00;16.50;1.00
27747;DHT22;15138;51.012;4.692;2023-10-09T02:57:36;16.50;1.00
27747;DHT22;15138;51.012;4.692;2023-10-09T03:00:05;16.50;1.00
27747;DHT22;15138;51.012;4.692;2023-10-09T03:02:45;16.50;1.00
27747;DHT22;15138;51.012;4.692;2023-10-09T03:05:17;16.50;1.00
27747;DHT22;15138;51.012;4.692;2023-10-09T03:07:47;16.50;1.00
27747;DHT22;15138;51.012;4.692;2023-10-09T03:10:16;16.50;1.00
27747;DHT22;15138;51.012;4.692;2023-10-09T03:12:45;16.50;1.00
27747;DHT22;15138;51.012;4.692;2023-10-09T03:15:18;16.50;1.00
27747;DHT22;15138;51.012;4.692;2023-10-09T03:17:47;16.50;99.90
27747;DHT22;15138;51.012;4.692;2023-10-09T03:20:16;16.60;99.90
27747;DHT22;15138;51.012;4.692;2023-10-09T03:22:45;16.70;98.70
27747;DHT22;15138;51.012;4.692;2023-10-09T03:25:15;16.50;99.90
27747;DHT22;15138;51.012;4.692;2023-10-09T03:27:46;16.60;99.90
27747;DHT22;15138;51.012;4.692;2023-10-09T03:30:15;16.60;1.00
27747;DHT22;15138;51.012;4.692;2023-10-09T03:32:50;16.60;81.90
27747;DHT22;15138;51.012;4.692;2023-10-09T03:35:19;16.50;99.90
27747;DHT22;15138;51.012;4.692;2023-10-09T03:37:55;16.50;77.60
27747;DHT22;15138;51.012;4.692;2023-10-09T03:40:27;16.50;99.90
27747;DHT22;15138;51.012;4.692;2023-10-09T03:42:57;16.60;30.30
27747;DHT22;15138;51.012;4.692;2023-10-09T03:45:28;16.60;99.90
27747;DHT22;15138;51.012;4.692;2023-10-09T03:47:58;16.50;1.00
27747;DHT22;15138;51.012;4.692;2023-10-09T03:50:36;16.50;1.00
27747;DHT22;15138;51.012;4.692;2023-10-09T03:53:05;16.50;1.00
27747;DHT22;15138;51.012;4.692;2023-10-09T03:55:35;16.60;1.00
27747;DHT22;15138;51.012;4.692;2023-10-09T03:58:07;16.50;99.90
27747;DHT22;15138;51.012;4.692;2023-10-09T04:00:39;16.50;99.90
27747;DHT22;15138;51.012;4.692;2023-10-09T04:03:12;16.50;99.90
27747;DHT22;15138;51.012;4.692;2023-10-09T04:05:42;16.50;99.90
27747;DHT22;15138;51.012;4.692;2023-10-09T04:08:11;16.50;99.90
27747;DHT22;15138;51.012;4.692;2023-10-09T04:10:46;16.60;99.90
27747;DHT22;15138;51.012;4.692;2023-10-09T04:13:25;16.50;99.90
27747;DHT22;15138;51.012;4.692;2023-10-09T04:16:01;16.50;1.00
27747;DHT22;15138;51.012;4.692;2023-10-09T04:18:38;16.50;1.00
27747;DHT22;15138;51.012;4.692;2023-10-09T04:21:07;16.40;1.00
27747;DHT22;15138;51.012;4.692;2023-10-09T04:23:46;16.40;99.90
27747;DHT22;15138;51.012;4.692;2023-10-09T04:26:36;16.50;99.90
27747;DHT22;15138;51.012;4.692;2023-10-09T04:29:08;16.50;1.00
27747;DHT22;15138;51.012;4.692;2023-10-09T04:31:37;16.50;99.90
27747;DHT22;15138;51.012;4.692;2023-10-09T04:34:05;16.40;1.00
27747;DHT22;15138;51.012;4.692;2023-10-09T04:36:56;16.40;1.00
27747;DHT22;15138;51.012;4.692;2023-10-09T04:39:27;16.40;99.90
27747;DHT22;15138;51.012;4.692;2023-10-09T04:42:15;16.40;99.90
27747;DHT22;15138;51.012;4.692;2023-10-09T04:45:06;16.40;99.90
27747;DHT22;15138;51.012;4.692;2023-10-09T04:48:08;16.40;1.00
27747;DHT22;15138;51.012;4.692;2023-10-09T04:50:36;16.40;99.90
27747;DHT22;15138;51.012;4.692;2023-10-09T04:53:13;16.40;99.90
27747;DHT22;15138;51.012;4.692;2023-10-09T04:55:52;16.50;1.00
27747;DHT22;15138;51.012;4.692;2023-10-09T04:58:25;16.50;1.00
27747;DHT22;15138;51.012;4.692;2023-10-09T05:00:55;16.50;1.00
27747;DHT22;15138;51.012;4.692;2023-10-09T05:03:40;16.50;99.90
27747;DHT22;15138;51.012;4.692;2023-10-09T05:06:12;16.50;99.90
27747;DHT22;15138;51.012;4.692;2023-10-09T05:09:10;16.40;1.00
27747;DHT22;15138;51.012;4.692;2023-10-09T05:11:41;16.40;99.90
27747;DHT22;15138;51.012;4.692;2023-10-09T05:14:23;16.40;99.90
27747;DHT22;15138;51.012;4.692;2023-10-09T05:17:07;16.40;99.90
27747;DHT22;15138;51.012;4.692;2023-10-09T05:19:43;16.40;1.00
27747;DHT22;15138;51.012;4.692;2023-10-09T05:22:30;16.40;1.00
27747;DHT22;15138;51.012;4.692;2023-10-09T05:25:03;16.40;99.90
27747;DHT22;15138;51.012;4.692;2023-10-09T05:27:42;16.40;99.90
27747;DHT22;15138;51.012;4.692;2023-10-09T05:30:17;16.40;92.10
27747;DHT22;15138;51.012;4.692;2023-10-09T05:33:02;16.50;99.90
27747;DHT22;15138;51.012;4.692;2023-10-09T05:35:44;16.40;99.90
27747;DHT22;15138;51.012;4.692;2023-10-09T05:38:32;16.40;31.90
27747;DHT22;15138;51.012;4.692;2023-10-09T05:41:02;16.40;99.90
27747;DHT22;15138;51.012;4.692;2023-10-09T05:43:44;16.40;1.00
27747;DHT22;15138;51.012;4.692;2023-10-09T05:46:30;16.40;1.00
27747;DHT22;15138;51.012;4.692;2023-10-09T05:49:05;16.40;99.90
27747;DHT22;15138;51.012;4.692;2023-10-09T05:51:47;16.40;99.90
27747;DHT22;15138;51.012;4.692;2023-10-09T05:54:20;16.40;99.90
27747;DHT22;15138;51.012;4.692;2023-10-09T05:57:10;16.40;1.00
27747;DHT22;15138;51.012;4.692;2023-10-09T06:00:12;16.30;99.90
27747;DHT22;15138;51.012;4.692;2023-10-09T06:02:58;16.40;1.00
27747;DHT22;15138;51.012;4.692;2023-10-09T06:05:45;16.40;1.00
27747;DHT22;15138;51.012;4.692;2023-10-09T06:08:30;16.50;99.90
27747;DHT22;15138;51.012;4.692;2023-10-09T06:11:13;16.50;1.00
27747;DHT22;15138;51.012;4.692;2023-10-09T06:13:56;16.50;1.00
27747;DHT22;15138;51.012;4.692;2023-10-09T06:16:41;16.50;1.00
27747;DHT22;15138;51.012;4.692;2023-10-09T06:19:10;16.50;1.00
27747;DHT22;15138;51.012;4.692;2023-10-09T06:21:41;16.40;99.90
27747;DHT22;15138;51.012;4.692;2023-10-09T06:24:27;16.50;1.00
27747;DHT22;15138;51.012;4.692;2023-10-09T06:27:09;16.50;99.90
27747;DHT22;15138;51.012;4.692;2023-10-09T06:29:41;16.50;99.90
27747;DHT22;15138;51.012;4.692;2023-10-09T06:32:29;16.50;1.00
27747;DHT22;15138;51.012;4.692;2023-10-09T06:35:05;16.50;99.90
27747;DHT22;15138;51.012;4.692;2023-10-09T06:37:48;16.50;1.00
27747;DHT22;15138;51.012;4.692;2023-10-09T06:40:35;16.60;1.00
27747;DHT22;15138;51.012;4.692;2023-10-09T06:43:22;16.60;57.70
27747;DHT22;15138;51.012;4.692;2023-10-09T06:45:56;16.60;1.00
27747;DHT22;15138;51.012;4.692;2023-10-09T06:48:56;16.60;99.90
27747;DHT22;15138;51.012;4.692;2023-10-09T06:51:24;16.70;1.00
27747;DHT22;15138;51.012;4.692;2023-10-09T06:54:10;16.70;1.00
27747;DHT22;15138;51.012;4.692;2023-10-09T06:56:42;16.70;1.00
27747;DHT22;15138;51.012;4.692;2023-10-09T06:59:27;16.70;1.00
27747;DHT22;15138;51.012;4.692;2023-10-09T07:02:08;16.80;99.90
27747;DHT22;15138;51.012;4.692;2023-10-09T07:04:54;16.80;99.90
27747;DHT22;15138;51.012;4.692;2023-10-09T07:07:40;16.90;33.70
27747;DHT22;15138;51.012;4.692;2023-10-09T07:10:18;16.90;99.90
27747;DHT22;15138;51.012;4.692;2023-10-09T07:13:00;16.90;99.90
27747;DHT22;15138;51.012;4.692;2023-10-09T07:15:30;17.00;99.90
27747;DHT22;15138;51.012;4.692;2023-10-09T07:18:16;17.10;18.20
27747;DHT22;15138;51.012;4.692;2023-10-09T07:20:50;17.10;94.80
27747;DHT22;15138;51.012;4.692;2023-10-09T07:23:28;17.10;99.90
27747;DHT22;15138;51.012;4.692;2023-10-09T07:26:05;17.20;99.90
27747;DHT22;15138;51.012;4.692;2023-10-09T07:28:52;17.20;84.10
27747;DHT22;15138;51.012;4.692;2023-10-09T07:31:42;17.30;1.00
27747;DHT22;15138;51.012;4.692;2023-10-09T07:34:14;17.30;8.60
27747;DHT22;15138;51.012;4.692;2023-10-09T07:37:05;17.40;1.00
27747;DHT22;15138;51.012;4.692;2023-10-09T07:39:34;17.50;1.00
27747;DHT22;15138;51.012;4.692;2023-10-09T07:42:06;17.50;1.00
27747;DHT22;15138;51.012;4.692;2023-10-09T07:44:46;17.70;1.00
27747;DHT22;15138;51.012;4.692;2023-10-09T07:47:21;17.70;1.00
27747;DHT22;15138;51.012;4.692;2023-10-09T07:50:13;17.90;24.80
27747;DHT22;15138;51.012;4.692;2023-10-09T07:52:48;18.10;61.30
27747;DHT22;15138;51.012;4.692;2023-10-09T07:55:17;18.20;1.00
27747;DHT22;15138;51.012;4.692;2023-10-09T07:57:57;18.30;1.00
27747;DHT22;15138;51.012;4.692;2023-10-09T08:00:37;18.40;1.00
27747;DHT22;15138;51.012;4.692;2023-10-09T08:03:26;18.40;1.00
27747;DHT22;15138;51.012;4.692;2023-10-09T08:06:00;18.40;99.90
27747;DHT22;15138;51.012;4.692;2023-10-09T08:08:56;18.30;99.90
27747;DHT22;15138;51.012;4.692;2023-10-09T08:11:49;18.30;99.90
27747;DHT22;15138;51.012;4.692;2023-10-09T08:15:04;18.40;99.90
27747;DHT22;15138;51.012;4.692;2023-10-09T08:17:50;18.40;99.90
27747;DHT22;15138;51.012;4.692;2023-10-09T08:20:21;18.30;99.90
27747;DHT22;15138;51.012;4.692;2023-10-09T08:22:52;18.40;99.90
27747;DHT22;15138;51.012;4.692;2023-10-09T08:25:23;18.40;1.00
27747;DHT22;15138;51.012;4.692;2023-10-09T08:27:56;18.60;1.00
27747;DHT22;15138;51.012;4.692;2023-10-09T08:30:43;18.60;99.90
27747;DHT22;15138;51.012;4.692;2023-10-09T08:33:30;18.60;99.90
27747;DHT22;15138;51.012;4.692;2023-10-09T08:36:13;18.70;99.90
27747;DHT22;15138;51.012;4.692;2023-10-09T08:38:50;18.90;99.90
27747;DHT22;15138;51.012;4.692;2023-10-09T08:41:19;19.20;99.90
27747;DHT22;15138;51.012;4.692;2023-10-09T08:43:51;19.30;99.90
27747;DHT22;15138;51.012;4.692;2023-10-09T08:46:25;19.60;99.90
27747;DHT22;15138;51.012;4.692;2023-10-09T08:48:55;19.90;99.90
27747;DHT22;15138;51.012;4.692;2023-10-09T08:51:26;20.00;99.90
27747;DHT22;15138;51.012;4.692;2023-10-09T08:53:55;20.00;99.90
27747;DHT22;15138;51.012;4.692;2023-10-09T08:56:23;20.10;93.70
27747;DHT22;15138;51.012;4.692;2023-10-09T08:58:52;20.00;44.80
27747;DHT22;15138;51.012;4.692;2023-10-09T09:01:22;20.10;31.50
27747;DHT22;15138;51.012;4.692;2023-10-09T09:03:54;20.20;9.70
27747;DHT22;15138;51.012;4.692;2023-10-09T09:06:23;20.30;6.10
27747;DHT22;15138;51.012;4.692;2023-10-09T09:08:52;20.40;1.00
27747;DHT22;15138;51.012;4.692;2023-10-09T09:14:03;20.80;1.00
27747;DHT22;15138;51.012;4.692;2023-10-09T09:16:34;21.10;1.00
27747;DHT22;15138;51.012;4.692;2023-10-09T09:19:06;21.30;1.00
27747;DHT22;15138;51.012;4.692;2023-10-09T09:21:49;21.50;1.00
27747;DHT22;15138;51.012;4.692;2023-10-09T09:24:21;21.70;1.00
27747;DHT22;15138;51.012;4.692;2023-10-09T09:27:01;21.50;1.00
27747;DHT22;15138;51.012;4.692;2023-10-09T09:29:40;22.00;1.00
27747;DHT22;15138;51.012;4.692;2023-10-09T09:32:28;21.90;1.00
27747;DHT22;15138;51.012;4.692;2023-10-09T09:35:11;22.40;99.90
27747;DHT22;15138;51.012;4.692;2023-10-09T09:37:52;22.80;1.00
27747;DHT22;15138;51.012;4.692;2023-10-09T09:40:22;22.50;1.00
27747;DHT22;15138;51.012;4.692;2023-10-09T09:43:01;22.70;1.00
27747;DHT22;15138;51.012;4.692;2023-10-09T09:45:33;23.20;1.00
27747;DHT22;15138;51.012;4.692;2023-10-09T09:48:02;23.60;1.00
27747;DHT22;15138;51.012;4.692;2023-10-09T09:50:34;23.40;1.00
27747;DHT22;15138;51.012;4.692;2023-10-09T09:53:10;23.60;1.00
27747;DHT22;15138;51.012;4.692;2023-10-09T09:55:46;23.70;99.90
27747;DHT22;15138;51.012;4.692;2023-10-09T09:58:19;23.40;1.00
27747;DHT22;15138;51.012;4.692;2023-10-09T10:00:51;23.50;1.00
27747;DHT22;15138;51.012;4.692;2023-10-09T10:03:25;23.60;1.00
27747;DHT22;15138;51.012;4.692;2023-10-09T10:05:56;23.50;99.90
27747;DHT22;15138;51.012;4.692;2023-10-09T10:10:59;23.40;1.00
27747;DHT22;15138;51.012;4.692;2023-10-09T10:13:54;23.40;1.00
27747;DHT22;15138;51.012;4.692;2023-10-09T10:16:26;23.20;1.00
27747;DHT22;15138;51.012;4.692;2023-10-09T10:19:03;23.20;99.90
27747;DHT22;15138;51.012;4.692;2023-10-09T10:22:25;23.50;1.00
27747;DHT22;15138;51.012;4.692;2023-10-09T10:24:55;23.00;99.90
27747;DHT22;15138;51.012;4.692;2023-10-09T10:27:26;23.30;99.90
27747;DHT22;15138;51.012;4.692;2023-10-09T10:30:28;23.20;99.90
27747;DHT22;15138;51.012;4.692;2023-10-09T10:33:04;23.50;99.90
27747;DHT22;15138;51.012;4.692;2023-10-09T10:35:41;23.70;99.90
27747;DHT22;15138;51.012;4.692;2023-10-09T10:38:25;23.50;99.90
27747;DHT22;15138;51.012;4.692;2023-10-09T10:57:18;23.90;1.00
27747;DHT22;15138;51.012;4.692;2023-10-09T11:00:19;23.90;1.00
27747;DHT22;15138;51.012;4.692;2023-10-09T11:03:05;23.80;1.00
27747;DHT22;15138;51.012;4.692;2023-10-09T11:05:46;23.60;1.00
27747;DHT22;15138;51.012;4.692;2023-10-09T11:08:24;23.70;1.00
27747;DHT22;15138;51.012;4.692;2023-10-09T11:11:12;23.50;1.00
27747;DHT22;15138;51.012;4.692;2023-10-09T11:13:43;23.60;1.00
27747;DHT22;15138;51.012;4.692;2023-10-09T11:16:24;23.40;1.00
27747;DHT22;15138;51.012;4.692;2023-10-09T11:19:10;23.40;1.00
27747;DHT22;15138;51.012;4.692;2023-10-09T11:21:57;23.30;1.00
27747;DHT22;15138;51.012;4.692;2023-10-09T11:24:43;23.30;99.90
27747;DHT22;15138;51.012;4.692;2023-10-09T11:27:13;23.40;49.40
27747;DHT22;15138;51.012;4.692;2023-10-09T11:29:49;23.30;32.60
27747;DHT22;15138;51.012;4.692;2023-10-09T11:32:32;23.40;31.00
27747;DHT22;15138;51.012;4.692;2023-10-09T11:35:13;23.40;38.00
27747;DHT22;15138;51.012;4.692;2023-10-09T11:37:55;23.50;97.80
27747;DHT22;15138;51.012;4.692;2023-10-09T11:40:27;23.50;99.90
27747;DHT22;15138;51.012;4.692;2023-10-09T11:43:01;23.60;99.90
27747;DHT22;15138;51.012;4.692;2023-10-09T11:45:30;23.60;99.90
27747;DHT22;15138;51.012;4.692;2023-10-09T11:48:17;23.60;99.90
27747;DHT22;15138;51.012;4.692;2023-10-09T11:50:54;23.70;99.90
27747;DHT22;15138;51.012;4.692;2023-10-09T11:53:23;23.70;99.90
27747;DHT22;15138;51.012;4.692;2023-10-09T11:58:31;23.60;99.90
27747;DHT22;15138;51.012;4.692;2023-10-09T12:01:11;24.10;1.00
27747;DHT22;15138;51.012;4.692;2023-10-09T12:03:44;24.30;99.90
27747;DHT22;15138;51.012;4.692;2023-10-09T12:06:17;24.20;1.00
27747;DHT22;15138;51.012;4.692;2023-10-09T12:29:03;24.30;99.90
27747;DHT22;15138;51.012;4.692;2023-10-09T12:31:37;24.30;99.90
27747;DHT22;15138;51.012;4.692;2023-10-09T12:34:06;24.30;99.90
27747;DHT22;15138;51.012;4.692;2023-10-09T12:36:35;24.40;99.90
27747;DHT22;15138;51.012;4.692;2023-10-09T12:39:04;24.30;99.90
27747;DHT22;15138;51.012;4.692;2023-10-09T12:41:33;24.40;99.90
27747;DHT22;15138;51.012;4.692;2023-10-09T12:44:04;24.20;99.90
27747;DHT22;15138;51.012;4.692;2023-10-09T12:46:32;24.10;99.90
27747;DHT22;15138;51.012;4.692;2023-10-09T12:49:05;24.10;99.90
27747;DHT22;15138;51.012;4.692;2023-10-09T12:51:33;24.10;99.90
27747;DHT22;15138;51.012;4.692;2023-10-09T12:54:02;24.10;99.90
27747;DHT22;15138;51.012;4.692;2023-10-09T12:56:30;24.20;99.90
27747;DHT22;15138;51.012;4.692;2023-10-09T12:59:06;23.60;99.90
27747;DHT22;15138;51.012;4.692;2023-10-09T13:01:42;23.80;99.90
27747;DHT22;15138;51.012;4.692;2023-10-09T13:04:19;23.70;99.90
27747;DHT22;15138;51.012;4.692;2023-10-09T13:06:50;23.60;99.90
27747;DHT22;15138;51.012;4.692;2023-10-09T13:09:21;23.60;99.90
27747;DHT22;15138;51.012;4.692;2023-10-09T13:12:00;23.70;99.90
27747;DHT22;15138;51.012;4.692;2023-10-09T13:14:32;23.80;99.90
27747;DHT22;15138;51.012;4.692;2023-10-09T13:17:01;24.00;99.90
27747;DHT22;15138;51.012;4.692;2023-10-09T13:19:35;24.10;99.90
27747;DHT22;15138;51.012;4.692;2023-10-09T13:22:04;24.00;99.90
27747;DHT22;15138;51.012;4.692;2023-10-09T13:24:40;24.00;99.90
27747;DHT22;15138;51.012;4.692;2023-10-09T13:27:08;24.20;99.90
27747;DHT22;15138;51.012;4.692;2023-10-09T13:29:39;24.80;99.90
27747;DHT22;15138;51.012;4.692;2023-10-09T13:32:08;24.80;99.90
27747;DHT22;15138;51.012;4.692;2023-10-09T13:34:42;24.80;99.90
27747;DHT22;15138;51.012;4.692;2023-10-09T13:39:48;24.80;99.90
27747;DHT22;15138;51.012;4.692;2023-10-09T13:42:20;24.40;99.90
27747;DHT22;15138;51.012;4.692;2023-10-09T13:44:53;24.30;99.90
27747;DHT22;15138;51.012;4.692;2023-10-09T13:47:22;24.30;99.90
27747;DHT22;15138;51.012;4.692;2023-10-09T13:49:56;24.30;99.90
27747;DHT22;15138;51.012;4.692;2023-10-09T13:52:26;24.30;99.90
27747;DHT22;15138;51.012;4.692;2023-10-09T13:54:54;24.30;99.90
27747;DHT22;15138;51.012;4.692;2023-10-09T13:57:25;24.40;99.90
27747;DHT22;15138;51.012;4.692;2023-10-09T14:00:00;24.10;99.90
27747;DHT22;15138;51.012;4.692;2023-10-09T14:02:28;24.00;99.90
27747;DHT22;15138;51.012;4.692;2023-10-09T14:04:56;24.10;99.90
27747;DHT22;15138;51.012;4.692;2023-10-09T14:07:28;24.10;99.90
27747;DHT22;15138;51.012;4.692;2023-10-09T14:09:56;24.00;99.90
27747;DHT22;15138;51.012;4.692;2023-10-09T14:12:35;24.00;99.90
27747;DHT22;15138;51.012;4.692;2023-10-09T14:15:09;23.90;99.90
27747;DHT22;15138;51.012;4.692;2023-10-09T14:17:43;23.80;99.90
27747;DHT22;15138;51.012;4.692;2023-10-09T14:20:14;23.80;99.90
27747;DHT22;15138;51.012;4.692;2023-10-09T14:22:58;23.60;99.90
27747;DHT22;15138;51.012;4.692;2023-10-09T14:25:33;23.60;99.90
27747;DHT22;15138;51.012;4.692;2023-10-09T14:28:05;23.60;99.90
27747;DHT22;15138;51.012;4.692;2023-10-09T14:30:36;23.50;99.90
27747;DHT22;15138;51.012;4.692;2023-10-09T14:33:10;23.60;99.90
27747;DHT22;15138;51.012;4.692;2023-10-09T14:35:41;23.50;99.90
27747;DHT22;15138;51.012;4.692;2023-10-09T14:38:09;23.50;99.90
27747;DHT22;15138;51.012;4.692;2023-10-09T14:40:42;23.50;99.90
27747;DHT22;15138;51.012;4.692;2023-10-09T14:43:12;23.30;99.90
27747;DHT22;15138;51.012;4.692;2023-10-09T14:45:48;23.50;99.90
27747;DHT22;15138;51.012;4.692;2023-10-09T14:48:21;23.40;99.90
27747;DHT22;15138;51.012;4.692;2023-10-09T14:50:53;23.50;99.90
27747;DHT22;15138;51.012;4.692;2023-10-09T14:53:22;23.50;99.90
27747;DHT22;15138;51.012;4.692;2023-10-09T14:55:56;23.60;99.90
27747;DHT22;15138;51.012;4.692;2023-10-09T14:58:26;23.50;99.90
27747;DHT22;15138;51.012;4.692;2023-10-09T15:00:57;23.50;99.90
27747;DHT22;15138;51.012;4.692;2023-10-09T15:03:25;23.40;99.90
27747;DHT22;15138;51.012;4.692;2023-10-09T15:05:55;23.30;99.90
27747;DHT22;15138;51.012;4.692;2023-10-09T15:08:26;22.90;99.90
27747;DHT22;15138;51.012;4.692;2023-10-09T15:10:54;22.90;99.90
27747;DHT22;15138;51.012;4.692;2023-10-09T15:13:23;22.80;99.90
27747;DHT22;15138;51.012;4.692;2023-10-09T15:18:25;23.50;99.90
27747;DHT22;15138;51.012;4.692;2023-10-09T15:20:53;23.60;99.90
27747;DHT22;15138;51.012;4.692;2023-10-09T15:23:21;23.60;99.90
27747;DHT22;15138;51.012;4.692;2023-10-09T15:25:49;23.50;99.90
27747;DHT22;15138;51.012;4.692;2023-10-09T15:28:19;23.50;99.90
27747;DHT22;15138;51.012;4.692;2023-10-09T15:30:47;23.50;99.90
27747;DHT22;15138;51.012;4.692;2023-10-09T15:33:16;23.50;99.90
27747;DHT22;15138;51.012;4.692;2023-10-09T15:35:47;23.50;99.90
27747;DHT22;15138;51.012;4.692;2023-10-09T15:38:16;23.50;99.90
27747;DHT22;15138;51.012;4.692;2023-10-09T15:40:46;23.40;99.90
27747;DHT22;15138;51.012;4.692;2023-10-09T15:43:15;23.40;99.90
27747;DHT22;15138;51.012;4.692;2023-10-09T15:45:44;23.50;99.90
27747;DHT22;15138;51.012;4.692;2023-10-09T15:48:15;23.60;99.90
27747;DHT22;15138;51.012;4.692;2023-10-09T15:50:46;23.60;99.90
27747;DHT22;15138;51.012;4.692;2023-10-09T15:53:17;23.50;99.90
27747;DHT22;15138;51.012;4.692;2023-10-09T15:55:46;23.60;99.90
27747;DHT22;15138;51.012;4.692;2023-10-09T15:58:18;23.60;99.90
27747;DHT22;15138;51.012;4.692;2023-10-09T16:00:47;23.50;99.90
27747;DHT22;15138;51.012;4.692;2023-10-09T16:03:15;23.50;99.90
27747;DHT22;15138;51.012;4.692;2023-10-09T16:05:43;23.50;99.90
27747;DHT22;15138;51.012;4.692;2023-10-09T16:08:15;23.40;99.90
27747;DHT22;15138;51.012;4.692;2023-10-09T16:10:46;23.40;99.90
27747;DHT22;15138;51.012;4.692;2023-10-09T16:13:14;23.30;99.90
27747;DHT22;15138;51.012;4.692;2023-10-09T16:15:43;23.10;99.90
27747;DHT22;15138;51.012;4.692;2023-10-09T16:18:11;23.10;99.90
27747;DHT22;15138;51.012;4.692;2023-10-09T16:20:39;23.00;99.90
27747;DHT22;15138;51.012;4.692;2023-10-09T16:23:07;22.90;99.90
27747;DHT22;15138;51.012;4.692;2023-10-09T16:25:38;22.80;99.90
27747;DHT22;15138;51.012;4.692;2023-10-09T16:28:07;22.70;99.90
27747;DHT22;15138;51.012;4.692;2023-10-09T16:30:36;22.60;99.90
27747;DHT22;15138;51.012;4.692;2023-10-09T16:33:04;22.50;99.90
27747;DHT22;15138;51.012;4.692;2023-10-09T16:35:33;22.40;99.90
27747;DHT22;15138;51.012;4.692;2023-10-09T16:38:04;22.20;99.90
27747;DHT22;15138;51.012;4.692;2023-10-09T16:40:40;22.20;99.90
27747;DHT22;15138;51.012;4.692;2023-10-09T16:43:14;22.10;99.90
27747;DHT22;15138;51.012;4.692;2023-10-09T16:45:44;22.00;99.90
27747;DHT22;15138;51.012;4.692;2023-10-09T16:48:13;22.00;99.90
27747;DHT22;15138;51.012;4.692;2023-10-09T16:50:43;21.80;99.90
27747;DHT22;15138;51.012;4.692;2023-10-09T16:53:14;21.70;99.90
27747;DHT22;15138;51.012;4.692;2023-10-09T16:55:45;21.60;99.90
27747;DHT22;15138;51.012;4.692;2023-10-09T16:58:15;21.50;99.90
27747;DHT22;15138;51.012;4.692;2023-10-09T17:00:44;21.50;99.90
27747;DHT22;15138;51.012;4.692;2023-10-09T17:03:14;21.30;99.90
27747;DHT22;15138;51.012;4.692;2023-10-09T17:05:42;21.20;99.90
27747;DHT22;15138;51.012;4.692;2023-10-09T17:08:25;21.10;99.90
27747;DHT22;15138;51.012;4.692;2023-10-09T17:10:58;21.00;99.90
27747;DHT22;15138;51.012;4.692;2023-10-09T17:13:26;20.90;99.90
27747;DHT22;15138;51.012;4.692;2023-10-09T17:15:54;20.70;99.90
27747;DHT22;15138;51.012;4.692;2023-10-09T17:18:23;20.60;99.90
27747;DHT22;15138;51.012;4.692;2023-10-09T17:20:54;20.50;99.90
27747;DHT22;15138;51.012;4.692;2023-10-09T17:23:22;20.50;99.90
27747;DHT22;15138;51.012;4.692;2023-10-09T17:25:50;20.40;99.90
27747;DHT22;15138;51.012;4.692;2023-10-09T17:28:26;20.30;99.90